sensor_id;sensor_type;location;lat;lon;timestamp;temperature;humidity
1205;DHT22;592;48.764;9.174;2023-03-30T00:00:53;15.00;99.90
1205;DHT22;592;48.764;9.174;2023-03-30T00:03:20;15.10;99.90
1205;DHT22;592;48.764;9.174;2023-03-30T00:05:47;15.10;99.90
1205;DHT22;592;48.764;9.174;2023-03-30T00:08:14;15.10;99.90
1205;DHT22;592;48.764;9.174;2023-03-30T00:10:42;15.10;99.90
1205;DHT22;592;48.764;9.174;2023-03-30T00:13:10;15.10;99.90
1205;DHT22;592;48.764;9.174;2023-03-30T00:15:38;15.20;99.90
1205;DHT22;592;48.764;9.174;2023-03-30T00:18:05;15.20;99.90
1205;DHT22;592;48.764;9.174;2023-03-30T00:20:33;15.20;99.90
1205;DHT22;592;48.764;9.174;2023-03-30T00:23:01;15.20;99.90
1205;DHT22;592;48.764;9.174;2023-03-30T00:25:28;15.40;99.90
1205;DHT22;592;48.764;9.174;2023-03-30T00:27:55;15.20;99.90
1205;DHT22;592;48.764;9.174;2023-03-30T00:30:22;15.20;99.90
1205;DHT22;592;48.764;9.174;2023-03-30T00:32:50;15.20;99.90
1205;DHT22;592;48.764;9.174;2023-03-30T00:35:16;15.20;99.90
1205;DHT22;592;48.764;9.174;2023-03-30T00:37:44;15.20;99.90
1205;DHT22;592;48.764;9.174;2023-03-30T00:40:16;15.20;99.90
1205;DHT22;592;48.764;9.174;2023-03-30T00:42:43;15.20;99.90
1205;DHT22;592;48.764;9.174;2023-03-30T00:45:17;15.20;99.90
1205;DHT22;592;48.764;9.174;2023-03-30T00:47:55;15.20;99.90
1205;DHT22;592;48.764;9.174;2023-03-30T00:50:26;15.20;99.90
1205;DHT22;592;48.764;9.174;2023-03-30T00:52:55;15.20;99.90
1205;DHT22;592;48.764;9.174;2023-03-30T00:55:27;15.20;99.90
1205;DHT22;592;48.764;9.174;2023-03-30T00:57:55;15.20;99.90
1205;DHT22;592;48.764;9.174;2023-03-30T01:00:22;15.20;99.90
1205;DHT22;592;48.764;9.174;2023-03-30T01:02:52;15.20;99.90
1205;DHT22;592;48.764;9.174;2023-03-30T01:05:21;15.10;99.90
1205;DHT22;592;48.764;9.174;2023-03-30T01:07:49;15.10;99.90
1205;DHT22;592;48.764;9.174;2023-03-30T01:10:17;15.20;99.90
1205;DHT22;592;48.764;9.174;2023-03-30T01:12:44;15.20;99.90
1205;DHT22;592;48.764;9.174;2023-03-30T01:15:11;15.10;99.90
1205;DHT22;592;48.764;9.174;2023-03-30T01:21:00;15.10;99.90
1205;DHT22;592;48.764;9.174;2023-03-30T01:23:51;15.10;99.90
1205;DHT22;592;48.764;9.174;2023-03-30T01:26:38;15.00;99.90
1205;DHT22;592;48.764;9.174;2023-03-30T01:29:15;15.00;99.90
1205;DHT22;592;48.764;9.174;2023-03-30T01:32:01;15.00;99.90
1205;DHT22;592;48.764;9.174;2023-03-30T01:34:42;15.00;99.90
1205;DHT22;592;48.764;9.174;2023-03-30T01:37:51;15.00;99.90
1205;DHT22;592;48.764;9.174;2023-03-30T01:40:28;14.90;99.90
1205;DHT22;592;48.764;9.174;2023-03-30T01:43:00;15.00;99.90
1205;DHT22;592;48.764;9.174;2023-03-30T01:45:36;14.90;99.90
1205;DHT22;592;48.764;9.174;2023-03-30T01:48:09;14.80;99.90
1205;DHT22;592;48.764;9.174;2023-03-30T01:50:40;14.80;99.90
1205;DHT22;592;48.764;9.174;2023-03-30T01:53:13;14.80;99.90
1205;DHT22;592;48.764;9.174;2023-03-30T01:55:45;14.80;99.90
1205;DHT22;592;48.764;9.174;2023-03-30T01:58:16;14.70;99.90
1205;DHT22;592;48.764;9.174;2023-03-30T02:00:45;14.70;99.90
1205;DHT22;592;48.764;9.174;2023-03-30T02:03:16;14.70;99.90
1205;DHT22;592;48.764;9.174;2023-03-30T02:05:49;14.90;99.90
1205;DHT22;592;48.764;9.174;2023-03-30T02:08:19;14.60;99.90
1205;DHT22;592;48.764;9.174;2023-03-30T02:10:50;14.70;99.90
1205;DHT22;592;48.764;9.174;2023-03-30T02:13:19;14.60;99.90
1205;DHT22;592;48.764;9.174;2023-03-30T02:15:48;14.40;99.90
1205;DHT22;592;48.764;9.174;2023-03-30T02:18:16;14.50;99.90
1205;DHT22;592;48.764;9.174;2023-03-30T02:20:43;14.40;99.90
1205;DHT22;592;48.764;9.174;2023-03-30T02:23:11;14.40;99.90
1205;DHT22;592;48.764;9.174;2023-03-30T02:25:38;14.40;99.90
1205;DHT22;592;48.764;9.174;2023-03-30T02:28:07;14.30;99.90
1205;DHT22;592;48.764;9.174;2023-03-30T02:30:37;14.80;99.90
1205;DHT22;592;48.764;9.174;2023-03-30T02:33:04;14.40;99.90
1205;DHT22;592;48.764;9.174;2023-03-30T02:35:52;14.30;99.90
1205;DHT22;592;48.764;9.174;2023-03-30T02:41:20;14.30;99.90
1205;DHT22;592;48.764;9.174;2023-03-30T02:43:59;14.40;99.90
1205;DHT22;592;48.764;9.174;2023-03-30T02:46:47;14.40;99.90
1205;DHT22;592;48.764;9.174;2023-03-30T02:49:20;14.40;99.90
1205;DHT22;592;48.764;9.174;2023-03-30T02:51:53;14.30;99.90
1205;DHT22;592;48.764;9.174;2023-03-30T02:54:28;14.40;99.90
1205;DHT22;592;48.764;9.174;2023-03-30T02:57:03;14.40;99.90
1205;DHT22;592;48.764;9.174;2023-03-30T02:59:38;14.30;99.90
1205;DHT22;592;48.764;9.174;2023-03-30T03:02:12;14.40;99.90
1205;DHT22;592;48.764;9.174;2023-03-30T03:04:40;14.40;99.90
1205;DHT22;592;48.764;9.174;2023-03-30T03:07:08;14.20;99.90
1205;DHT22;592;48.764;9.174;2023-03-30T03:09:35;14.10;99.90
1205;DHT22;592;48.764;9.174;2023-03-30T03:12:02;13.90;99.90
1205;DHT22;592;48.764;9.174;2023-03-30T03:14:29;13.90;99.90
1205;DHT22;592;48.764;9.174;2023-03-30T03:16:57;13.80;99.90
1205;DHT22;592;48.764;9.174;2023-03-30T03:19:24;13.70;99.90
1205;DHT22;592;48.764;9.174;2023-03-30T03:21:50;13.70;99.90
1205;DHT22;592;48.764;9.174;2023-03-30T03:24:17;13.70;99.90
1205;DHT22;592;48.764;9.174;2023-03-30T03:26:44;13.60;99.90
1205;DHT22;592;48.764;9.174;2023-03-30T03:29:11;13.60;99.90
1205;DHT22;592;48.764;9.174;2023-03-30T03:31:38;13.60;99.90
1205;DHT22;592;48.764;9.174;2023-03-30T03:34:06;13.50;99.90
1205;DHT22;592;48.764;9.174;2023-03-30T03:36:33;13.50;99.90
1205;DHT22;592;48.764;9.174;2023-03-30T03:38:59;13.50;99.90
1205;DHT22;592;48.764;9.174;2023-03-30T03:41:26;13.50;99.90
1205;DHT22;592;48.764;9.174;2023-03-30T03:43:53;13.40;99.90
1205;DHT22;592;48.764;9.174;2023-03-30T03:46:20;13.50;99.90
1205;DHT22;592;48.764;9.174;2023-03-30T03:48:46;13.50;99.90
1205;DHT22;592;48.764;9.174;2023-03-30T03:51:14;13.50;99.90
1205;DHT22;592;48.764;9.174;2023-03-30T03:53:41;13.40;99.90
1205;DHT22;592;48.764;9.174;2023-03-30T03:56:08;13.40;99.90
1205;DHT22;592;48.764;9.174;2023-03-30T03:58:36;13.40;99.90
1205;DHT22;592;48.764;9.174;2023-03-30T04:01:02;13.40;99.90
1205;DHT22;592;48.764;9.174;2023-03-30T04:03:29;13.30;99.90
1205;DHT22;592;48.764;9.174;2023-03-30T04:05:57;13.30;99.90
1205;DHT22;592;48.764;9.174;2023-03-30T04:08:25;13.30;99.90
1205;DHT22;592;48.764;9.174;2023-03-30T04:10:52;13.30;99.90
1205;DHT22;592;48.764;9.174;2023-03-30T04:13:19;13.40;99.90
1205;DHT22;592;48.764;9.174;2023-03-30T04:15:46;13.40;99.90
1205;DHT22;592;48.764;9.174;2023-03-30T04:18:12;13.40;99.90
1205;DHT22;592;48.764;9.174;2023-03-30T04:20:39;13.40;99.90
1205;DHT22;592;48.764;9.174;2023-03-30T04:23:06;13.30;99.90
1205;DHT22;592;48.764;9.174;2023-03-30T04:25:35;13.30;99.90
1205;DHT22;592;48.764;9.174;2023-03-30T04:28:04;13.30;99.90
1205;DHT22;592;48.764;9.174;2023-03-30T04:30:31;13.30;99.90
1205;DHT22;592;48.764;9.174;2023-03-30T04:32:58;13.30;99.90
1205;DHT22;592;48.764;9.174;2023-03-30T04:35:30;13.40;99.90
1205;DHT22;592;48.764;9.174;2023-03-30T04:37:57;13.40;99.90
1205;DHT22;592;48.764;9.174;2023-03-30T04:40:24;13.50;99.90
1205;DHT22;592;48.764;9.174;2023-03-30T04:42:52;13.50;99.90
1205;DHT22;592;48.764;9.174;2023-03-30T04:45:19;13.60;99.90
1205;DHT22;592;48.764;9.174;2023-03-30T04:47:46;13.50;99.90
1205;DHT22;592;48.764;9.174;2023-03-30T04:50:13;13.50;99.90
1205;DHT22;592;48.764;9.174;2023-03-30T04:52:40;13.50;99.90
1205;DHT22;592;48.764;9.174;2023-03-30T04:55:08;13.50;99.90
1205;DHT22;592;48.764;9.174;2023-03-30T04:57:36;13.60;99.90
1205;DHT22;592;48.764;9.174;2023-03-30T05:00:05;13.60;99.90
1205;DHT22;592;48.764;9.174;2023-03-30T05:02:33;13.60;99.90
1205;DHT22;592;48.764;9.174;2023-03-30T05:05:00;13.60;99.90
1205;DHT22;592;48.764;9.174;2023-03-30T05:07:27;13.50;99.90
1205;DHT22;592;48.764;9.174;2023-03-30T05:09:54;13.50;99.90
1205;DHT22;592;48.764;9.174;2023-03-30T05:12:21;13.50;99.90
1205;DHT22;592;48.764;9.174;2023-03-30T05:15:02;13.50;99.90
1205;DHT22;592;48.764;9.174;2023-03-30T05:17:31;13.50;99.90
1205;DHT22;592;48.764;9.174;2023-03-30T05:19:58;13.50;99.90
1205;DHT22;592;48.764;9.174;2023-03-30T05:22:25;13.40;99.90
1205;DHT22;592;48.764;9.174;2023-03-30T05:24:51;13.00;99.90
1205;DHT22;592;48.764;9.174;2023-03-30T05:27:18;13.20;99.90
1205;DHT22;592;48.764;9.174;2023-03-30T05:29:45;13.20;99.90
1205;DHT22;592;48.764;9.174;2023-03-30T05:32:13;13.30;99.90
1205;DHT22;592;48.764;9.174;2023-03-30T05:34:40;13.40;99.90
1205;DHT22;592;48.764;9.174;2023-03-30T05:37:06;13.40;99.90
1205;DHT22;592;48.764;9.174;2023-03-30T05:39:33;13.40;99.90
1205;DHT22;592;48.764;9.174;2023-03-30T05:42:00;13.30;99.90
1205;DHT22;592;48.764;9.174;2023-03-30T05:44:28;13.40;99.90
1205;DHT22;592;48.764;9.174;2023-03-30T05:46:55;13.40;99.90
1205;DHT22;592;48.764;9.174;2023-03-30T05:49:23;13.40;99.90
1205;DHT22;592;48.764;9.174;2023-03-30T05:51:50;13.30;99.90
1205;DHT22;592;48.764;9.174;2023-03-30T05:54:18;13.30;99.90
1205;DHT22;592;48.764;9.174;2023-03-30T05:56:44;13.40;99.90
1205;DHT22;592;48.764;9.174;2023-03-30T05:59:11;13.40;99.90
1205;DHT22;592;48.764;9.174;2023-03-30T06:01:38;13.40;99.90
1205;DHT22;592;48.764;9.174;2023-03-30T06:04:05;13.30;99.90
1205;DHT22;592;48.764;9.174;2023-03-30T06:06:33;13.10;99.90
1205;DHT22;592;48.764;9.174;2023-03-30T06:09:00;13.20;99.90
1205;DHT22;592;48.764;9.174;2023-03-30T06:11:28;13.20;99.90
1205;DHT22;592;48.764;9.174;2023-03-30T06:13:56;13.10;99.90
1205;DHT22;592;48.764;9.174;2023-03-30T06:16:23;13.00;99.90
1205;DHT22;592;48.764;9.174;2023-03-30T06:18:50;13.10;99.90
1205;DHT22;592;48.764;9.174;2023-03-30T06:21:17;13.30;99.90
1205;DHT22;592;48.764;9.174;2023-03-30T06:23:45;13.20;99.90
1205;DHT22;592;48.764;9.174;2023-03-30T06:26:11;13.40;99.90
1205;DHT22;592;48.764;9.174;2023-03-30T06:28:39;13.30;99.90
1205;DHT22;592;48.764;9.174;2023-03-30T06:31:13;13.30;99.90
1205;DHT22;592;48.764;9.174;2023-03-30T06:33:40;13.40;99.90
1205;DHT22;592;48.764;9.174;2023-03-30T06:36:10;13.50;99.90
1205;DHT22;592;48.764;9.174;2023-03-30T06:38:37;13.40;99.90
1205;DHT22;592;48.764;9.174;2023-03-30T06:41:06;13.50;99.90
1205;DHT22;592;48.764;9.174;2023-03-30T06:43:36;13.50;99.90
1205;DHT22;592;48.764;9.174;2023-03-30T06:46:04;13.50;99.90
1205;DHT22;592;48.764;9.174;2023-03-30T06:48:31;13.50;99.90
1205;DHT22;592;48.764;9.174;2023-03-30T06:50:58;13.60;99.90
1205;DHT22;592;48.764;9.174;2023-03-30T06:53:25;13.70;99.90
1205;DHT22;592;48.764;9.174;2023-03-30T06:55:54;13.70;99.90
1205;DHT22;592;48.764;9.174;2023-03-30T06:58:24;13.50;99.90
1205;DHT22;592;48.764;9.174;2023-03-30T07:00:51;13.50;99.90
1205;DHT22;592;48.764;9.174;2023-03-30T07:03:19;13.40;99.90
1205;DHT22;592;48.764;9.174;2023-03-30T07:05:46;13.40;99.90
1205;DHT22;592;48.764;9.174;2023-03-30T07:08:13;13.40;99.90
1205;DHT22;592;48.764;9.174;2023-03-30T07:10:40;13.40;99.90
1205;DHT22;592;48.764;9.174;2023-03-30T07:13:08;13.40;99.90
1205;DHT22;592;48.764;9.174;2023-03-30T07:15:36;13.40;99.90
1205;DHT22;592;48.764;9.174;2023-03-30T07:18:03;13.20;99.90
1205;DHT22;592;48.764;9.174;2023-03-30T07:20:30;13.30;99.90
1205;DHT22;592;48.764;9.174;2023-03-30T07:22:57;13.30;99.90
1205;DHT22;592;48.764;9.174;2023-03-30T07:25:24;13.30;99.90
1205;DHT22;592;48.764;9.174;2023-03-30T07:27:51;13.10;99.90
1205;DHT22;592;48.764;9.174;2023-03-30T07:30:18;13.10;99.90
1205;DHT22;592;48.764;9.174;2023-03-30T07:32:48;13.00;99.90
1205;DHT22;592;48.764;9.174;2023-03-30T07:35:15;12.90;99.90
1205;DHT22;592;48.764;9.174;2023-03-30T07:37:42;12.80;99.90
1205;DHT22;592;48.764;9.174;2023-03-30T07:40:10;12.80;99.90
1205;DHT22;592;48.764;9.174;2023-03-30T07:42:37;12.80;99.90
1205;DHT22;592;48.764;9.174;2023-03-30T07:45:04;12.80;99.90
1205;DHT22;592;48.764;9.174;2023-03-30T07:47:31;12.60;99.90
1205;DHT22;592;48.764;9.174;2023-03-30T07:49:59;12.70;99.90
1205;DHT22;592;48.764;9.174;2023-03-30T07:52:26;12.60;99.90
1205;DHT22;592;48.764;9.174;2023-03-30T07:54:53;12.60;99.90
1205;DHT22;592;48.764;9.174;2023-03-30T07:57:20;12.50;99.90
1205;DHT22;592;48.764;9.174;2023-03-30T07:59:47;12.60;99.90
1205;DHT22;592;48.764;9.174;2023-03-30T08:02:14;12.70;99.90
1205;DHT22;592;48.764;9.174;2023-03-30T08:04:41;12.80;99.90
1205;DHT22;592;48.764;9.174;2023-03-30T08:07:09;12.90;99.90
1205;DHT22;592;48.764;9.174;2023-03-30T08:09:36;12.90;99.90
1205;DHT22;592;48.764;9.174;2023-03-30T08:12:05;12.70;99.90
1205;DHT22;592;48.764;9.174;2023-03-30T08:14:32;12.50;99.90
1205;DHT22;592;48.764;9.174;2023-03-30T08:16:59;12.50;99.90
1205;DHT22;592;48.764;9.174;2023-03-30T08:19:26;12.50;99.90
1205;DHT22;592;48.764;9.174;2023-03-30T08:21:52;12.60;99.90
1205;DHT22;592;48.764;9.174;2023-03-30T08:24:22;12.70;99.90
1205;DHT22;592;48.764;9.174;2023-03-30T08:26:48;12.60;99.90
1205;DHT22;592;48.764;9.174;2023-03-30T08:29:15;12.50;99.90
1205;DHT22;592;48.764;9.174;2023-03-30T08:31:43;12.30;99.90
1205;DHT22;592;48.764;9.174;2023-03-30T08:34:10;12.40;99.90
1205;DHT22;592;48.764;9.174;2023-03-30T08:36:37;12.50;99.90
1205;DHT22;592;48.764;9.174;2023-03-30T08:39:04;12.60;99.90
1205;DHT22;592;48.764;9.174;2023-03-30T08:41:58;12.60;99.90
1205;DHT22;592;48.764;9.174;2023-03-30T08:44:34;12.60;99.90
1205;DHT22;592;48.764;9.174;2023-03-30T08:47:04;12.70;99.90
1205;DHT22;592;48.764;9.174;2023-03-30T08:49:38;12.90;99.90
1205;DHT22;592;48.764;9.174;2023-03-30T08:52:09;13.30;99.90
1205;DHT22;592;48.764;9.174;2023-03-30T08:54:38;12.90;99.90
1205;DHT22;592;48.764;9.174;2023-03-30T08:57:10;12.90;99.90
1205;DHT22;592;48.764;9.174;2023-03-30T08:59:44;13.00;99.90
1205;DHT22;592;48.764;9.174;2023-03-30T09:02:16;13.00;99.90
1205;DHT22;592;48.764;9.174;2023-03-30T09:04:55;13.10;99.90
1205;DHT22;592;48.764;9.174;2023-03-30T09:07:25;12.80;99.90
1205;DHT22;592;48.764;9.174;2023-03-30T09:09:53;12.70;99.90
1205;DHT22;592;48.764;9.174;2023-03-30T09:12:27;12.60;99.90
1205;DHT22;592;48.764;9.174;2023-03-30T09:15:02;12.60;99.90
1205;DHT22;592;48.764;9.174;2023-03-30T09:17:31;12.70;99.90
1205;DHT22;592;48.764;9.174;2023-03-30T09:20:04;13.50;99.90
1205;DHT22;592;48.764;9.174;2023-03-30T09:22:37;12.50;99.90
1205;DHT22;592;48.764;9.174;2023-03-30T09:25:12;12.50;99.90
1205;DHT22;592;48.764;9.174;2023-03-30T09:27:46;12.50;99.90
1205;DHT22;592;48.764;9.174;2023-03-30T09:30:19;12.50;99.90
1205;DHT22;592;48.764;9.174;2023-03-30T09:32:58;12.50;99.90
1205;DHT22;592;48.764;9.174;2023-03-30T09:35:32;12.60;99.90
1205;DHT22;592;48.764;9.174;2023-03-30T09:38:01;12.70;99.90
1205;DHT22;592;48.764;9.174;2023-03-30T09:40:44;12.70;99.90
1205;DHT22;592;48.764;9.174;2023-03-30T09:43:16;12.70;99.90
1205;DHT22;592;48.764;9.174;2023-03-30T09:45:49;12.70;99.90
1205;DHT22;592;48.764;9.174;2023-03-30T09:48:16;12.70;99.90
1205;DHT22;592;48.764;9.174;2023-03-30T09:50:44;12.70;99.90
1205;DHT22;592;48.764;9.174;2023-03-30T09:53:21;13.10;99.90
1205;DHT22;592;48.764;9.174;2023-03-30T09:55:58;12.80;99.90
1205;DHT22;592;48.764;9.174;2023-03-30T09:58:28;12.70;99.90
1205;DHT22;592;48.764;9.174;2023-03-30T10:01:04;12.90;99.90
1205;DHT22;592;48.764;9.174;2023-03-30T10:03:31;12.70;99.90
1205;DHT22;592;48.764;9.174;2023-03-30T10:06:01;12.80;99.90
1205;DHT22;592;48.764;9.174;2023-03-30T10:08:29;12.80;99.90
1205;DHT22;592;48.764;9.174;2023-03-30T10:10:57;13.00;99.90
1205;DHT22;592;48.764;9.174;2023-03-30T10:13:29;13.20;99.90
1205;DHT22;592;48.764;9.174;2023-03-30T10:16:02;13.20;99.90
1205;DHT22;592;48.764;9.174;2023-03-30T10:18:36;13.30;99.90
1205;DHT22;592;48.764;9.174;2023-03-30T10:21:04;13.40;99.90
1205;DHT22;592;48.764;9.174;2023-03-30T10:23:34;13.70;99.90
1205;DHT22;592;48.764;9.174;2023-03-30T10:26:09;13.80;99.90
1205;DHT22;592;48.764;9.174;2023-03-30T10:28:39;13.80;99.90
1205;DHT22;592;48.764;9.174;2023-03-30T10:31:12;13.70;99.90
1205;DHT22;592;48.764;9.174;2023-03-30T10:33:42;13.90;99.90
1205;DHT22;592;48.764;9.174;2023-03-30T10:36:10;14.10;99.90
1205;DHT22;592;48.764;9.174;2023-03-30T10:38:39;13.90;99.90
1205;DHT22;592;48.764;9.174;2023-03-30T10:41:11;13.70;99.90
1205;DHT22;592;48.764;9.174;2023-03-30T10:43:40;13.70;99.90
1205;DHT22;592;48.764;9.174;2023-03-30T10:46:12;13.70;99.90
1205;DHT22;592;48.764;9.174;2023-03-30T10:49:03;13.80;99.90
1205;DHT22;592;48.764;9.174;2023-03-30T10:51:41;13.70;99.90
1205;DHT22;592;48.764;9.174;2023-03-30T10:54:15;13.70;99.90
1205;DHT22;592;48.764;9.174;2023-03-30T10:56:45;13.80;99.90
1205;DHT22;592;48.764;9.174;2023-03-30T11:02:43;13.80;99.90
1205;DHT22;592;48.764;9.174;2023-03-30T11:05:15;13.90;99.90
1205;DHT22;592;48.764;9.174;2023-03-30T11:07:45;13.90;99.90
1205;DHT22;592;48.764;9.174;2023-03-30T11:10:18;14.00;99.90
1205;DHT22;592;48.764;9.174;2023-03-30T11:12:50;13.90;99.90
1205;DHT22;592;48.764;9.174;2023-03-30T11:15:24;13.90;99.90
1205;DHT22;592;48.764;9.174;2023-03-30T11:18:00;14.20;99.90
1205;DHT22;592;48.764;9.174;2023-03-30T11:20:30;14.20;99.90
1205;DHT22;592;48.764;9.174;2023-03-30T11:23:02;14.20;99.90
1205;DHT22;592;48.764;9.174;2023-03-30T11:25:33;14.40;99.90
1205;DHT22;592;48.764;9.174;2023-03-30T11:28:09;14.40;99.90
1205;DHT22;592;48.764;9.174;2023-03-30T11:30:38;15.00;99.90
1205;DHT22;592;48.764;9.174;2023-03-30T11:33:16;14.50;99.90
1205;DHT22;592;48.764;9.174;2023-03-30T11:35:46;14.40;99.90
1205;DHT22;592;48.764;9.174;2023-03-30T11:38:16;14.70;99.90
1205;DHT22;592;48.764;9.174;2023-03-30T11:40:46;14.70;99.90
1205;DHT22;592;48.764;9.174;2023-03-30T11:43:15;14.60;99.90
1205;DHT22;592;48.764;9.174;2023-03-30T11:45:50;14.60;99.90
1205;DHT22;592;48.764;9.174;2023-03-30T11:48:43;14.70;99.90
1205;DHT22;592;48.764;9.174;2023-03-30T11:51:21;14.60;99.90
1205;DHT22;592;48.764;9.174;2023-03-30T11:53:56;14.50;99.90
1205;DHT22;592;48.764;9.174;2023-03-30T11:56:30;14.50;99.90
1205;DHT22;592;48.764;9.174;2023-03-30T11:59:02;14.50;99.90
1205;DHT22;592;48.764;9.174;2023-03-30T12:01:49;15.10;99.90
1205;DHT22;592;48.764;9.174;2023-03-30T12:04:26;14.60;99.90
1205;DHT22;592;48.764;9.174;2023-03-30T12:06:56;14.60;99.90
1205;DHT22;592;48.764;9.174;2023-03-30T12:09:25;14.60;99.90
1205;DHT22;592;48.764;9.174;2023-03-30T12:12:04;14.60;99.90
1205;DHT22;592;48.764;9.174;2023-03-30T12:14:41;14.70;99.90
1205;DHT22;592;48.764;9.174;2023-03-30T12:17:19;14.80;99.90
1205;DHT22;592;48.764;9.174;2023-03-30T12:19:56;14.80;99.90
1205;DHT22;592;48.764;9.174;2023-03-30T12:22:28;14.80;99.90
1205;DHT22;592;48.764;9.174;2023-03-30T12:25:02;14.70;99.90
1205;DHT22;592;48.764;9.174;2023-03-30T12:27:34;14.50;99.90
1205;DHT22;592;48.764;9.174;2023-03-30T12:30:17;14.70;99.90
1205;DHT22;592;48.764;9.174;2023-03-30T12:32:57;14.80;99.90
1205;DHT22;592;48.764;9.174;2023-03-30T12:35:52;14.80;99.90
1205;DHT22;592;48.764;9.174;2023-03-30T12:38:21;15.00;99.90
1205;DHT22;592;48.764;9.174;2023-03-30T12:40:54;15.10;99.90
1205;DHT22;592;48.764;9.174;2023-03-30T12:43:34;15.00;99.90
1205;DHT22;592;48.764;9.174;2023-03-30T12:46:09;15.10;99.90
1205;DHT22;592;48.764;9.174;2023-03-30T12:48:46;15.00;99.90
1205;DHT22;592;48.764;9.174;2023-03-30T12:51:26;15.20;99.90
1205;DHT22;592;48.764;9.174;2023-03-30T12:54:10;15.20;99.90
1205;DHT22;592;48.764;9.174;2023-03-30T12:56:48;15.20;99.90
1205;DHT22;592;48.764;9.174;2023-03-30T12:59:50;15.50;99.90
1205;DHT22;592;48.764;9.174;2023-03-30T13:02:37;15.30;99.90
1205;DHT22;592;48.764;9.174;2023-03-30T13:05:16;15.40;99.90
1205;DHT22;592;48.764;9.174;2023-03-30T13:07:45;15.60;99.90
1205;DHT22;592;48.764;9.174;2023-03-30T13:10:37;15.60;99.90
1205;DHT22;592;48.764;9.174;2023-03-30T13:13:43;15.60;99.90
1205;DHT22;592;48.764;9.174;2023-03-30T13:16:11;15.90;99.90
1205;DHT22;592;48.764;9.174;2023-03-30T13:18:51;15.80;99.90
1205;DHT22;592;48.764;9.174;2023-03-30T13:21:21;15.60;99.90
1205;DHT22;592;48.764;9.174;2023-03-30T13:24:02;15.50;99.90
1205;DHT22;592;48.764;9.174;2023-03-30T13:26:40;15.80;99.90
1205;DHT22;592;48.764;9.174;2023-03-30T13:29:08;15.70;99.90
1205;DHT22;592;48.764;9.174;2023-03-30T13:34:33;15.50;99.90
1205;DHT22;592;48.764;9.174;2023-03-30T13:37:13;15.40;99.90
1205;DHT22;592;48.764;9.174;2023-03-30T13:39:48;15.50;99.90
1205;DHT22;592;48.764;9.174;2023-03-30T13:42:38;15.60;99.90
1205;DHT22;592;48.764;9.174;2023-03-30T13:45:20;15.40;99.90
1205;DHT22;592;48.764;9.174;2023-03-30T13:47:59;15.60;99.90
1205;DHT22;592;48.764;9.174;2023-03-30T13:50:30;15.60;99.90
1205;DHT22;592;48.764;9.174;2023-03-30T13:53:02;16.00;99.90
1205;DHT22;592;48.764;9.174;2023-03-30T13:55:35;15.80;99.90
1205;DHT22;592;48.764;9.174;2023-03-30T13:58:06;16.30;99.90
1205;DHT22;592;48.764;9.174;2023-03-30T14:00:38;17.10;99.90
1205;DHT22;592;48.764;9.174;2023-03-30T14:03:32;16.20;99.90
1205;DHT22;592;48.764;9.174;2023-03-30T14:06:03;16.40;99.90
1205;DHT22;592;48.764;9.174;2023-03-30T14:08:33;17.30;99.90
1205;DHT22;592;48.764;9.174;2023-03-30T14:11:06;17.30;99.90
1205;DHT22;592;48.764;9.174;2023-03-30T14:13:36;17.30;99.90
1205;DHT22;592;48.764;9.174;2023-03-30T14:16:03;17.10;99.90
1205;DHT22;592;48.764;9.174;2023-03-30T14:18:31;17.20;99.90
1205;DHT22;592;48.764;9.174;2023-03-30T14:21:00;16.80;99.90
1205;DHT22;592;48.764;9.174;2023-03-30T14:23:32;17.00;99.90
1205;DHT22;592;48.764;9.174;2023-03-30T14:26:03;16.90;99.90
1205;DHT22;592;48.764;9.174;2023-03-30T14:28:34;16.80;99.90
1205;DHT22;592;48.764;9.174;2023-03-30T14:31:10;16.80;99.90
1205;DHT22;592;48.764;9.174;2023-03-30T14:33:37;16.50;99.90
1205;DHT22;592;48.764;9.174;2023-03-30T14:36:06;16.30;99.90
1205;DHT22;592;48.764;9.174;2023-03-30T14:38:37;16.20;99.90
1205;DHT22;592;48.764;9.174;2023-03-30T14:41:08;16.20;99.90
1205;DHT22;592;48.764;9.174;2023-03-30T14:43:37;16.30;99.90
1205;DHT22;592;48.764;9.174;2023-03-30T14:46:08;16.30;99.90
1205;DHT22;592;48.764;9.174;2023-03-30T14:48:38;16.20;99.90
1205;DHT22;592;48.764;9.174;2023-03-30T14:51:18;15.90;99.90
1205;DHT22;592;48.764;9.174;2023-03-30T14:53:46;15.80;99.90
1205;DHT22;592;48.764;9.174;2023-03-30T14:56:16;15.90;99.90
1205;DHT22;592;48.764;9.174;2023-03-30T14:58:44;15.70;99.90
1205;DHT22;592;48.764;9.174;2023-03-30T15:01:14;15.80;99.90
1205;DHT22;592;48.764;9.174;2023-03-30T15:03:42;15.60;99.90
1205;DHT22;592;48.764;9.174;2023-03-30T15:06:14;15.70;99.90
1205;DHT22;592;48.764;9.174;2023-03-30T15:08:45;15.70;99.90
1205;DHT22;592;48.764;9.174;2023-03-30T15:11:14;15.70;99.90
1205;DHT22;592;48.764;9.174;2023-03-30T15:13:43;15.50;99.90
1205;DHT22;592;48.764;9.174;2023-03-30T15:16:14;15.50;99.90
1205;DHT22;592;48.764;9.174;2023-03-30T15:18:46;15.40;99.90
1205;DHT22;592;48.764;9.174;2023-03-30T15:21:13;15.50;99.90
1205;DHT22;592;48.764;9.174;2023-03-30T15:23:43;15.40;99.90
1205;DHT22;592;48.764;9.174;2023-03-30T15:26:11;15.40;99.90
1205;DHT22;592;48.764;9.174;2023-03-30T15:28:46;15.20;99.90
1205;DHT22;592;48.764;9.174;2023-03-30T15:31:14;15.30;99.90
1205;DHT22;592;48.764;9.174;2023-03-30T15:33:43;15.30;99.90
1205;DHT22;592;48.764;9.174;2023-03-30T15:36:12;15.30;99.90
1205;DHT22;592;48.764;9.174;2023-03-30T15:38:46;15.40;99.90
1205;DHT22;592;48.764;9.174;2023-03-30T15:41:15;15.50;99.90
1205;DHT22;592;48.764;9.174;2023-03-30T15:44:08;15.80;99.90
1205;DHT22;592;48.764;9.174;2023-03-30T15:46:37;16.20;99.90
1205;DHT22;592;48.764;9.174;2023-03-30T15:49:04;16.30;99.90
1205;DHT22;592;48.764;9.174;2023-03-30T15:51:35;16.20;99.90
1205;DHT22;592;48.764;9.174;2023-03-30T15:54:06;16.60;99.90
1205;DHT22;592;48.764;9.174;2023-03-30T15:56:38;16.60;99.90
1205;DHT22;592;48.764;9.174;2023-03-30T15:59:11;16.50;99.90
1205;DHT22;592;48.764;9.174;2023-03-30T16:01:42;16.20;99.90
1205;DHT22;592;48.764;9.174;2023-03-30T16:04:12;15.90;99.90
1205;DHT22;592;48.764;9.174;2023-03-30T16:06:39;15.70;99.90
1205;DHT22;592;48.764;9.174;2023-03-30T16:09:07;15.60;99.90
1205;DHT22;592;48.764;9.174;2023-03-30T16:11:34;15.60;99.90
1205;DHT22;592;48.764;9.174;2023-03-30T16:14:02;15.50;99.90
1205;DHT22;592;48.764;9.174;2023-03-30T16:16:31;15.50;99.90
1205;DHT22;592;48.764;9.174;2023-03-30T16:18:58;15.40;99.90
1205;DHT22;592;48.764;9.174;2023-03-30T16:21:25;15.30;99.90
1205;DHT22;592;48.764;9.174;2023-03-30T16:23:52;15.30;99.90
1205;DHT22;592;48.764;9.174;2023-03-30T16:26:19;15.30;99.90
1205;DHT22;592;48.764;9.174;2023-03-30T16:28:47;15.00;99.90
1205;DHT22;592;48.764;9.174;2023-03-30T16:31:17;14.80;99.90
1205;DHT22;592;48.764;9.174;2023-03-30T16:33:46;14.70;99.90
1205;DHT22;592;48.764;9.174;2023-03-30T16:36:15;14.70;99.90
1205;DHT22;592;48.764;9.174;2023-03-30T16:38:42;14.80;99.90
1205;DHT22;592;48.764;9.174;2023-03-30T16:41:10;14.50;99.90
1205;DHT22;592;48.764;9.174;2023-03-30T16:43:38;14.50;99.90
1205;DHT22;592;48.764;9.174;2023-03-30T16:46:05;14.50;99.90
1205;DHT22;592;48.764;9.174;2023-03-30T16:48:32;14.50;99.90
1205;DHT22;592;48.764;9.174;2023-03-30T16:51:00;14.60;99.90
1205;DHT22;592;48.764;9.174;2023-03-30T16:53:27;14.40;99.90